Time,TemperatureF,DewpointF,PressureIn,WindDirection,WindDirectionDegrees,WindSpeedMPH,WindSpeedGustMPH,Humidity,HourlyPrecipIn,Conditions,Clouds,dailyrainin,SoftwareType,DateUTC
2013-08-13 00:12:00,58.0,44.0,-100.00,NNE,20,4.0,7.0,59,-99.99,,,-99.99,,2013-08-13 05:12:00,
2013-08-13 00:21:00,58.0,44.0,-100.00,NNE,20,4.0,7.0,59,-99.99,,,-99.99,,2013-08-13 05:21:00,
2013-08-13 00:32:00,58.0,44.0,-100.00,NNE,20,4.0,7.0,59,-99.99,,,-99.99,,2013-08-13 05:32:00,
2013-08-13 01:11:00,52.0,45.0,-100.00,NNW,345,4.0,4.0,78,-99.99,,,-99.99,,2013-08-13 06:11:00,
2013-08-13 01:21:00,52.0,45.0,-100.00,NNW,345,4.0,4.0,78,-99.99,,,-99.99,,2013-08-13 06:21:00,
2013-08-13 01:42:00,51.0,46.0,-100.00,NNW,340,4.0,6.0,83,-99.99,,,-99.99,,2013-08-13 06:42:00,
2013-08-13 01:52:00,51.0,46.0,-100.00,NNW,340,4.0,6.0,83,-99.99,,,-99.99,,2013-08-13 06:52:00,
2013-08-13 02:12:00,50.0,46.0,-100.00,NW,325,6.0,6.0,86,-99.99,,,-99.99,,2013-08-13 07:12:00,
2013-08-13 02:21:00,50.0,46.0,-100.00,NW,325,6.0,6.0,86,-99.99,,,-99.99,,2013-08-13 07:21:00,
2013-08-13 02:42:00,49.0,46.0,-100.00,NW,320,6.0,7.0,89,-99.99,,,-99.99,,2013-08-13 07:42:00,
2013-08-13 02:52:00,49.0,46.0,-100.00,NW,320,6.0,7.0,89,-99.99,,,-99.99,,2013-08-13 07:52:00,
2013-08-13 03:11:00,49.0,46.0,-100.00,NW,325,4.0,6.0,90,-99.99,,,-99.99,,2013-08-13 08:11:00,
2013-08-13 03:22:00,49.0,46.0,-100.00,NW,325,4.0,6.0,90,-99.99,,,-99.99,,2013-08-13 08:22:00,
2013-08-13 03:42:00,47.0,45.0,-100.00,NW,320,6.0,7.0,94,-99.99,,,-99.99,,2013-08-13 08:42:00,
2013-08-13 03:52:00,47.0,45.0,-100.00,NW,320,6.0,7.0,94,-99.99,,,-99.99,,2013-08-13 08:52:00,
2013-08-13 04:11:00,46.0,45.0,-100.00,NW,320,5.0,6.0,95,-99.99,,,-99.99,,2013-08-13 09:11:00,
2013-08-13 04:22:00,46.0,45.0,-100.00,NW,320,5.0,6.0,95,-99.99,,,-99.99,,2013-08-13 09:22:00,
2013-08-13 04:43:00,47.0,45.0,-100.00,NNW,330,4.0,5.0,96,-99.99,,,-99.99,,2013-08-13 09:43:00,
2013-08-13 04:54:00,47.0,45.0,-100.00,NNW,330,4.0,5.0,96,-99.99,,,-99.99,,2013-08-13 09:54:00,
2013-08-13 05:12:00,45.0,45.0,-100.00,NW,305,3.0,6.0,97,-99.99,,,-99.99,,2013-08-13 10:12:00,
2013-08-13 05:23:00,45.0,45.0,-100.00,NW,305,3.0,6.0,97,-99.99,,,-99.99,,2013-08-13 10:23:00,
2013-08-13 05:43:00,44.0,44.0,-100.00,NW,310,2.0,4.0,99,-99.99,,,-99.99,,2013-08-13 10:43:00,
2013-08-13 05:53:00,44.0,44.0,-100.00,NW,310,2.0,4.0,99,-99.99,,,-99.99,,2013-08-13 10:53:00,
2013-08-13 06:11:00,45.0,45.0,-100.00,NNW,330,4.0,6.0,99,-99.99,,,-99.99,,2013-08-13 11:11:00,
2013-08-13 06:22:00,45.0,45.0,-100.00,NNW,330,4.0,6.0,99,-99.99,,,-99.99,,2013-08-13 11:22:00,
2013-08-13 06:42:00,45.0,45.0,-100.00,NW,310,6.0,7.0,99,-99.99,,,-99.99,,2013-08-13 11:42:00,
2013-08-13 06:52:00,45.0,45.0,-100.00,NW,310,6.0,7.0,99,-99.99,,,-99.99,,2013-08-13 11:52:00,
2013-08-13 07:12:00,45.0,44.0,-100.00,NNW,335,2.0,4.0,99,-99.99,,,-99.99,,2013-08-13 12:12:00,
2013-08-13 07:21:00,45.0,44.0,-100.00,NNW,335,2.0,4.0,99,-99.99,,,-99.99,,2013-08-13 12:21:00,
2013-08-13 07:42:00,45.0,45.0,-100.00,NW,315,2.0,4.0,99,-99.99,,,-99.99,,2013-08-13 12:42:00,
2013-08-13 07:52:00,45.0,45.0,-100.00,NW,315,2.0,4.0,99,-99.99,,,-99.99,,2013-08-13 12:52:00,
2013-08-13 08:01:00,45.0,45.0,-100.00,NW,315,2.0,4.0,99,-99.99,,,-99.99,,2013-08-13 13:01:00,
2013-08-13 09:11:00,53.0,50.0,-100.00,North,350,5.0,7.0,92,-99.99,,,-99.99,,2013-08-13 14:11:00,
2013-08-13 09:22:00,53.0,50.0,-100.00,North,350,5.0,7.0,92,-99.99,,,-99.99,,2013-08-13 14:22:00,
2013-08-13 09:42:00,56.0,51.0,-100.00,North,350,2.0,6.0,85,-99.99,,,-99.99,,2013-08-13 14:42:00,
2013-08-13 09:52:00,56.0,51.0,-100.00,North,350,2.0,6.0,85,-99.99,,,-99.99,,2013-08-13 14:52:00,
2013-08-13 10:11:00,58.0,51.0,-100.00,NNW,340,2.0,4.0,76,-99.99,,,-99.99,,2013-08-13 15:11:00,
2013-08-13 10:21:00,58.0,51.0,-100.00,NNW,340,2.0,4.0,76,-99.99,,,-99.99,,2013-08-13 15:21:00,
2013-08-13 10:44:00,62.0,50.0,-100.00,NNW,335,4.0,7.0,64,-99.99,,,-99.99,,2013-08-13 15:44:00,
2013-08-13 10:54:00,62.0,50.0,-100.00,NNW,335,4.0,7.0,64,-99.99,,,-99.99,,2013-08-13 15:54:00,
2013-08-13 11:13:00,64.0,50.0,-100.00,North,0,6.0,10.0,59,-99.99,,,-99.99,,2013-08-13 16:13:00,
2013-08-13 11:23:00,64.0,50.0,-100.00,North,0,6.0,10.0,59,-99.99,,,-99.99,,2013-08-13 16:23:00,
2013-08-13 11:45:00,66.0,49.0,-100.00,NNE,20,7.0,11.0,54,-99.99,,,-99.99,,2013-08-13 16:45:00,
2013-08-13 11:54:00,66.0,49.0,-100.00,NNE,20,7.0,11.0,54,-99.99,,,-99.99,,2013-08-13 16:54:00,
2013-08-13 12:16:00,68.0,49.0,-100.00,NNE,30,4.0,12.0,51,-99.99,,,-99.99,,2013-08-13 17:16:00,
2013-08-13 12:27:00,68.0,49.0,-100.00,NNE,30,4.0,12.0,51,-99.99,,,-99.99,,2013-08-13 17:27:00,
2013-08-13 12:46:00,-999.0,-99.9,-100.00,ENE,65,6.0,10.0,-999,-99.99,,,-99.99,,2013-08-13 17:46:00,
2013-08-13 12:56:00,70.0,48.0,-100.00,ENE,65,6.0,10.0,45,-99.99,,,-99.99,,2013-08-13 17:56:00,
2013-08-13 13:15:00,73.0,47.0,-100.00,North,5,2.0,8.0,40,-99.99,,,-99.99,,2013-08-13 18:15:00,
2013-08-13 13:25:00,73.0,47.0,-100.00,North,5,2.0,8.0,40,-99.99,,,-99.99,,2013-08-13 18:25:00,
2013-08-13 13:44:00,72.0,44.0,-100.00,NNW,330,7.0,10.0,37,-99.99,,,-99.99,,2013-08-13 18:44:00,
2013-08-13 13:56:00,72.0,44.0,-100.00,NNW,330,7.0,10.0,37,-99.99,,,-99.99,,2013-08-13 18:56:00,
2013-08-13 14:14:00,73.0,44.0,-100.00,NNE,25,2.0,12.0,36,-99.99,,,-99.99,,2013-08-13 19:14:00,
2013-08-13 14:24:00,73.0,44.0,-100.00,NNE,25,2.0,12.0,36,-99.99,,,-99.99,,2013-08-13 19:24:00,
2013-08-13 14:44:00,74.0,44.0,-100.00,NNW,330,1.0,11.0,35,-99.99,,,-99.99,,2013-08-13 19:44:00,
2013-08-13 14:55:00,74.0,44.0,-100.00,NNW,330,1.0,11.0,35,-99.99,,,-99.99,,2013-08-13 19:55:00,
2013-08-13 15:15:00,74.0,44.0,-100.00,North,0,2.0,10.0,34,-99.99,,,-99.99,,2013-08-13 20:15:00,
2013-08-13 15:22:00,74.0,44.0,-100.00,North,0,2.0,10.0,34,-99.99,,,-99.99,,2013-08-13 20:22:00,
2013-08-13 15:45:00,74.0,42.0,-100.00,NNW,340,8.0,12.0,32,-99.99,,,-99.99,,2013-08-13 20:45:00,
2013-08-13 15:53:00,74.0,42.0,-100.00,NNW,340,8.0,12.0,32,-99.99,,,-99.99,,2013-08-13 20:53:00,
2013-08-13 16:11:00,75.0,43.0,-100.00,North,5,3.0,7.0,32,-99.99,,,-99.99,,2013-08-13 21:11:00,
2013-08-13 16:24:00,75.0,43.0,-100.00,North,5,3.0,7.0,32,-99.99,,,-99.99,,2013-08-13 21:24:00,
2013-08-13 16:46:00,76.0,43.0,-100.00,SE,125,1.0,8.0,31,-99.99,,,-99.99,,2013-08-13 21:46:00,
2013-08-13 16:54:00,76.0,43.0,-100.00,SE,125,1.0,8.0,31,-99.99,,,-99.99,,2013-08-13 21:54:00,
2013-08-13 17:13:00,76.0,43.0,-100.00,NNE,15,7.0,11.0,31,-99.99,,,-99.99,,2013-08-13 22:13:00,
2013-08-13 17:22:00,76.0,43.0,-100.00,NNE,15,7.0,11.0,31,-99.99,,,-99.99,,2013-08-13 22:22:00,
2013-08-13 17:50:00,76.0,43.0,-100.00,ENE,70,6.0,11.0,31,-99.99,,,-99.99,,2013-08-13 22:50:00,
2013-08-13 17:57:00,76.0,43.0,-100.00,ENE,70,6.0,11.0,31,-99.99,,,-99.99,,2013-08-13 22:57:00,
2013-08-13 18:03:00,76.0,45.0,-100.00,NE,40,4.0,7.0,33,-99.99,,,-99.99,,2013-08-13 23:03:00,
2013-08-13 18:13:00,74.0,43.0,-100.00,NNW,335,6.0,12.0,33,-99.99,,,-99.99,,2013-08-13 23:13:00,
2013-08-13 18:26:00,74.0,43.0,-100.00,NNW,335,6.0,12.0,33,-99.99,,,-99.99,,2013-08-13 23:26:00,
2013-08-13 18:47:00,76.0,45.0,-100.00,NE,40,4.0,7.0,33,-99.99,,,-99.99,,2013-08-13 23:47:00,
2013-08-13 18:57:00,76.0,45.0,-100.00,NE,40,4.0,7.0,33,-99.99,,,-99.99,,2013-08-13 23:57:00,
2013-08-13 20:11:00,73.0,44.0,-100.00,NNE,25,5.0,7.0,36,-99.99,,,-99.99,,2013-08-14 01:11:00,
2013-08-13 20:21:00,73.0,44.0,-100.00,NNE,25,5.0,7.0,36,-99.99,,,-99.99,,2013-08-14 01:21:00,
2013-08-13 20:42:00,72.0,44.0,-100.00,NNE,25,4.0,6.0,37,-99.99,,,-99.99,,2013-08-14 01:42:00,
2013-08-13 20:52:00,72.0,44.0,-100.00,NNE,25,4.0,6.0,37,-99.99,,,-99.99,,2013-08-14 01:52:00,
2013-08-13 21:11:00,69.0,44.0,-100.00,NE,40,2.0,5.0,40,-99.99,,,-99.99,,2013-08-14 02:11:00,
2013-08-13 21:22:00,69.0,44.0,-100.00,NE,40,2.0,5.0,40,-99.99,,,-99.99,,2013-08-14 02:22:00,
2013-08-13 21:42:00,67.0,45.0,-100.00,NNE,25,2.0,4.0,45,-99.99,,,-99.99,,2013-08-14 02:42:00,
2013-08-13 21:52:00,67.0,45.0,-100.00,NNE,25,2.0,4.0,45,-99.99,,,-99.99,,2013-08-14 02:52:00,
2013-08-13 22:11:00,66.0,45.0,-100.00,ENE,65,3.0,4.0,47,-99.99,,,-99.99,,2013-08-14 03:11:00,
2013-08-13 22:22:00,66.0,45.0,-100.00,ENE,65,3.0,4.0,47,-99.99,,,-99.99,,2013-08-14 03:22:00,
2013-08-13 22:43:00,64.0,45.0,-100.00,ENE,65,1.0,3.0,51,-99.99,,,-99.99,,2013-08-14 03:43:00,
2013-08-13 22:53:00,64.0,45.0,-100.00,ENE,65,1.0,3.0,51,-99.99,,,-99.99,,2013-08-14 03:53:00,
2013-08-13 23:12:00,64.0,47.0,-100.00,NE,45,2.0,4.0,54,-99.99,,,-99.99,,2013-08-14 04:12:00,
2013-08-13 23:23:00,64.0,47.0,-100.00,NE,45,2.0,4.0,54,-99.99,,,-99.99,,2013-08-14 04:23:00,
2013-08-13 23:42:00,60.0,47.0,-100.00,NE,55,1.0,2.0,63,-99.99,,,-99.99,,2013-08-14 04:42:00,
2013-08-13 23:52:00,60.0,47.0,-100.00,NE,55,1.0,2.0,63,-99.99,,,-99.99,,2013-08-14 04:52:00,